createdAt,value
2018-06-04T05:19:07.590Z,21.50
2018-06-04T05:24:02.171Z,21.70
2018-06-04T05:28:56.740Z,21.60
2018-06-04T05:33:51.471Z,21.60
2018-06-04T05:38:46.139Z,21.70
2018-06-04T05:43:40.787Z,21.80
2018-06-04T05:48:35.333Z,21.70
2018-06-04T05:53:36.633Z,21.60
2018-06-04T05:58:31.146Z,21.50
2018-06-04T06:03:25.698Z,21.50
2018-06-04T06:08:20.268Z,21.30
2018-06-04T06:13:14.810Z,21.10
2018-06-04T06:18:09.410Z,21.10
2018-06-04T06:23:04.011Z,21.20
2018-06-04T06:27:58.606Z,21.20
2018-06-04T06:32:53.160Z,21.10
2018-06-04T06:37:47.734Z,21.20
2018-06-04T06:42:42.292Z,21.30
2018-06-04T06:47:36.827Z,21.40
2018-06-04T06:52:31.417Z,21.70
2018-06-04T06:57:25.917Z,21.70
2018-06-04T07:02:20.752Z,22.10
2018-06-04T07:07:15.306Z,22.30
2018-06-04T07:12:09.853Z,22.40
2018-06-04T07:17:04.425Z,22.70
2018-06-04T07:21:58.977Z,22.70
2018-06-04T07:31:47.780Z,23.20
2018-06-04T07:36:42.327Z,23.40
2018-06-04T07:41:36.926Z,23.60
2018-06-04T07:46:31.587Z,23.50
2018-06-04T07:51:26.166Z,23.50
2018-06-04T07:56:20.701Z,23.70
2018-06-04T08:01:15.280Z,24.00
2018-06-04T08:06:09.883Z,24.10
2018-06-04T08:11:04.471Z,24.50
2018-06-04T08:15:59.055Z,24.70
2018-06-04T08:20:53.607Z,25.00
2018-06-04T08:25:48.150Z,25.10
2018-06-04T08:30:42.724Z,25.30
2018-06-04T08:35:37.280Z,25.70
2018-06-04T08:40:31.827Z,25.90
2018-06-04T08:45:26.361Z,25.80
2018-06-04T08:50:20.926Z,25.70
2018-06-04T09:00:12.339Z,26.00
2018-06-04T09:05:06.923Z,26.50
2018-06-04T09:10:01.474Z,26.50
2018-06-04T09:14:56.060Z,26.80
2018-06-04T09:19:50.642Z,26.80
2018-06-04T09:24:45.219Z,26.90
2018-06-04T09:29:39.820Z,26.70
2018-06-04T09:34:35.418Z,26.70
2018-06-04T09:39:30.011Z,26.60
2018-06-04T09:44:24.645Z,26.60
2018-06-04T09:49:19.183Z,26.80
2018-06-04T09:54:13.839Z,27.00
2018-06-04T09:59:08.394Z,27.20
2018-06-04T10:04:03.094Z,27.00
2018-06-04T10:08:57.632Z,27.30
2018-06-04T10:13:52.203Z,27.30
2018-06-04T10:18:47.354Z,27.20
2018-06-04T10:23:41.964Z,27.60
2018-06-04T10:28:36.491Z,27.80
2018-06-04T10:33:31.054Z,27.90
2018-06-04T10:38:25.613Z,27.80
2018-06-04T10:43:20.154Z,27.90
2018-06-04T10:48:14.705Z,28.00
2018-06-04T10:53:09.283Z,28.20
2018-06-04T10:58:03.859Z,28.30
2018-06-04T11:02:58.404Z,28.10
2018-06-04T11:07:52.978Z,28.30
2018-06-04T11:12:47.587Z,28.30
2018-06-04T11:17:42.383Z,28.50
2018-06-04T11:22:36.943Z,28.80
2018-06-04T11:27:31.495Z,29.00
2018-06-04T11:32:26.088Z,29.30
2018-06-04T11:37:20.663Z,29.30
2018-06-04T11:42:15.240Z,29.40
2018-06-04T11:47:09.796Z,29.40
2018-06-04T11:52:04.423Z,29.30
2018-06-04T11:56:59.003Z,29.10
2018-06-04T12:01:53.585Z,29.20
2018-06-04T12:06:48.145Z,29.10
2018-06-04T12:11:42.707Z,29.20
2018-06-04T12:16:37.277Z,29.50
2018-06-04T12:21:31.862Z,29.20
2018-06-04T12:26:26.425Z,28.90
2018-06-04T12:31:20.995Z,29.20
2018-06-04T12:36:15.567Z,29.10
2018-06-04T12:41:10.226Z,28.90
2018-06-04T12:46:04.916Z,28.90
2018-06-04T12:50:59.510Z,28.90
2018-06-04T12:55:54.069Z,28.90
2018-06-04T13:00:48.594Z,28.90
2018-06-04T13:05:43.204Z,28.60
2018-06-04T13:10:37.780Z,28.60
2018-06-04T13:15:32.418Z,28.70
2018-06-04T13:20:27.033Z,28.70
2018-06-04T13:25:21.637Z,28.60
2018-06-04T13:30:16.215Z,28.60
2018-06-04T13:35:10.786Z,28.70
2018-06-04T13:44:59.632Z,28.30
2018-06-04T13:49:54.215Z,28.50
2018-06-04T13:59:43.048Z,28.60
2018-06-04T14:04:37.579Z,28.60
2018-06-04T14:09:32.163Z,28.40
2018-06-04T14:14:26.785Z,28.40
2018-06-04T14:19:21.346Z,28.30
2018-06-04T14:29:10.182Z,28.40
2018-06-04T14:34:04.785Z,28.30
2018-06-04T14:38:59.437Z,28.30
2018-06-04T14:43:53.999Z,28.30
2018-06-04T14:48:48.571Z,28.40
2018-06-04T14:58:37.379Z,28.60
2018-06-04T15:03:31.942Z,28.60
2018-06-04T15:08:26.498Z,28.30
2018-06-04T15:13:21.074Z,28.20
2018-06-04T15:18:15.680Z,28.20
2018-06-04T15:23:10.218Z,28.10
2018-06-04T15:32:59.086Z,28.30
2018-06-04T15:37:53.754Z,28.30
2018-06-04T15:42:48.311Z,28.20
2018-06-04T15:47:42.874Z,28.10
2018-06-04T15:52:37.455Z,28.10
2018-06-04T15:57:32.021Z,28.10
2018-06-04T16:02:26.596Z,28.20
2018-06-04T16:07:21.163Z,28.10
2018-06-04T16:12:15.757Z,28.00
2018-06-04T16:17:10.314Z,28.00
2018-06-04T16:22:04.913Z,27.80
2018-06-04T16:26:59.398Z,27.60
2018-06-04T16:31:53.951Z,27.30
2018-06-04T16:36:48.555Z,27.10
2018-06-04T16:41:43.137Z,27.00
2018-06-04T16:46:37.681Z,26.90
2018-06-04T16:51:32.259Z,26.80
2018-06-04T16:56:26.891Z,26.30
2018-06-04T17:01:21.495Z,26.00
2018-06-04T17:06:16.081Z,25.80
2018-06-04T17:11:10.619Z,25.50
2018-06-04T17:16:05.867Z,25.30
2018-06-04T17:21:00.424Z,25.20
2018-06-04T17:25:54.979Z,25.00
2018-06-04T17:30:49.600Z,25.00
2018-06-04T17:35:44.152Z,24.90
2018-06-04T17:40:38.710Z,24.80
2018-06-04T17:45:33.274Z,24.60
2018-06-04T17:50:27.839Z,24.60
2018-06-04T17:55:22.419Z,24.40
2018-06-04T18:00:17.026Z,24.30
2018-06-04T18:05:11.607Z,24.10
2018-06-04T18:10:06.276Z,23.90
2018-06-04T18:15:00.878Z,23.90
2018-06-04T18:19:55.524Z,23.70
2018-06-04T18:24:50.121Z,23.70
2018-06-04T18:29:44.722Z,23.60
2018-06-04T18:34:39.330Z,23.40
2018-06-04T18:39:33.955Z,23.20
2018-06-04T18:44:28.574Z,23.20
2018-06-04T18:49:23.071Z,23.30
2018-06-04T18:54:17.719Z,23.00
2018-06-04T18:59:12.305Z,22.10
2018-06-04T19:04:06.937Z,21.60
2018-06-04T19:09:01.623Z,21.40
2018-06-04T19:13:56.099Z,21.50
2018-06-04T19:18:50.720Z,21.80
2018-06-04T19:23:45.316Z,21.80
2018-06-04T19:28:39.931Z,21.80
2018-06-04T19:33:34.548Z,21.90
2018-06-04T19:38:29.167Z,22.10
2018-06-04T19:43:23.738Z,22.10
2018-06-04T19:48:18.357Z,22.00
2018-06-04T19:53:12.926Z,21.80
2018-06-04T19:58:07.514Z,21.80
2018-06-04T20:03:02.165Z,21.80
2018-06-04T20:07:56.708Z,21.80
2018-06-04T20:12:51.292Z,21.80
2018-06-04T20:17:45.819Z,21.80
2018-06-04T20:22:40.414Z,21.70
2018-06-04T20:27:34.978Z,21.70
2018-06-04T20:32:29.560Z,21.60
2018-06-04T20:37:24.117Z,21.60
2018-06-04T20:42:18.729Z,21.60
2018-06-04T20:47:13.347Z,21.60
2018-06-04T20:52:08.036Z,21.70
2018-06-04T20:57:02.622Z,21.80
2018-06-04T21:01:57.218Z,21.90
2018-06-04T21:06:51.794Z,21.80
2018-06-04T21:11:46.404Z,21.50
2018-06-04T21:16:40.971Z,21.20
2018-06-04T21:21:35.512Z,20.90
2018-06-04T21:26:30.277Z,20.60
2018-06-04T21:31:24.840Z,20.50
2018-06-04T21:36:19.406Z,20.40
2018-06-04T21:41:14.000Z,20.50
2018-06-04T21:51:02.796Z,20.60
2018-06-04T22:00:51.769Z,20.70
2018-06-04T22:05:46.346Z,20.70
2018-06-04T22:10:40.949Z,20.70
2018-06-04T22:15:35.560Z,20.70
2018-06-04T22:20:30.163Z,20.50
2018-06-04T22:25:24.747Z,20.40
2018-06-04T22:30:19.302Z,20.30
2018-06-04T22:35:13.838Z,20.20
2018-06-04T22:40:08.407Z,19.90
2018-06-04T22:45:02.970Z,19.90
2018-06-04T22:49:57.550Z,20.00
2018-06-04T22:54:52.140Z,19.80
2018-06-04T22:59:46.697Z,19.70
2018-06-04T23:04:41.241Z,19.70
2018-06-04T23:09:35.778Z,19.60
2018-06-04T23:14:30.298Z,19.60
2018-06-04T23:19:24.876Z,19.50
2018-06-04T23:24:19.453Z,19.20
2018-06-04T23:29:13.958Z,19.10
2018-06-04T23:34:08.514Z,19.10
2018-06-04T23:39:03.124Z,19.00
2018-06-04T23:43:57.731Z,18.90
2018-06-04T23:48:52.253Z,18.90
2018-06-04T23:53:46.805Z,18.90
2018-06-04T23:58:41.314Z,18.90
